Overview Statistics Trail Chart Weather Telemetry Raw packets
 

This is the latest recevied telemetry packets stored in our database for station/object DG2NPE-5. If no packets are shown the sender has not sent any telemetry packets the latest 10 day(s).

Telemetry packets is used to share measurements like repeteater parameters, battery voltage, radiation readings (or any other measurements).

<< 1 2 3 >>
Time Press* Temp.in* Hum* eGAS* Temp.out*
1788210128 973.1 hPa 26.1 C deg 43.6 % 562 - 0 C deg
1788209833 973 hPa 26 C deg 43.8 % 544 - 0 C deg
1788208341 972.9 hPa 25.8 C deg 43.3 % 504 - 0 C deg
1788207956 972.7 hPa 25.9 C deg 42.7 % 512 - 0 C deg
1788207169 972.6 hPa 26.2 C deg 41.9 % 519 - 0 C deg
1788205352 972.4 hPa 26.3 C deg 41.2 % 527 - 0 C deg
1788205250 972.3 hPa 26.3 C deg 41.2 % 529 - 0 C deg
1788205031 972.2 hPa 26.3 C deg 41.1 % 528 - 0 C deg
1788204823 972.2 hPa 26.3 C deg 41.2 % 525 - 0 C deg
1788203008 971.9 hPa 26.8 C deg 39.9 % 529 - 0 C deg
1788201191 971.6 hPa 27.7 C deg 38.4 % 534 - 0 C deg
1788201089 971.6 hPa 27.7 C deg 37.8 % 531 - 0 C deg
1788200884 971.5 hPa 27.9 C deg 37.6 % 533 - 0 C deg
1788199514 970.4 hPa 28.6 C deg 36.6 % 527 - 0 C deg
1788197699 970.5 hPa 30 C deg 34 % 523 - 0 C deg
1788195886 970.4 hPa 30.6 C deg 33.2 % 550 - 0 C deg
1788194071 970.6 hPa 32.1 C deg 31.4 % 531 - 0 C deg
1788192253 970.4 hPa 33.6 C deg 29.8 % 529 - 0 C deg
1788192025 970.4 hPa 34 C deg 29 % 529 - 0 C deg
1788191923 970.4 hPa 34.1 C deg 28.8 % 526 - 0 C deg
1788191686 970.4 hPa 34 C deg 28.9 % 522 - 0 C deg
1788191625 970.4 hPa 33.9 C deg 29.2 % 521 - 0 C deg
1788191534 970.4 hPa 33.8 C deg 29.3 % 520 - 0 C deg
1788191484 970.4 hPa 33.7 C deg 29.7 % 520 - 0 C deg
1788191434 970.4 hPa 33.6 C deg 29.9 % 521 - 0 C deg
*Used Equation Coefficients:
Press: 0, 1, 0
Temp.in: 0, 1, 0
Hum: 0, 1, 0
eGAS: 0, 1, 0
Temp.out: 0, 1, 0

  • The parameter names for the analog channels will be Value1, Value2, Value3 (up to Value5) if station has not sent a PARAM-packet that specifies the parameter names for each analog channel.
  • Each analog value is a decimal number between 000 and 255 (according to APRS specifications). The receiver use the telemetry equation coefficientsto to restore the original sensor values. If no EQNS-packet with equation coefficients is sent we will show the values as is (this corresponds to the equation coefficients a=0, b=1 and c=0).
    The sent equation coefficients is used in the equation: a * value2 + b * value + c.
  • The units for the analog values will not be shown if station has not sent a UNIT-packet specifying what unit's to use.
  • The parameter names for the digital bits will be Bit1, Bit2, Bit3 (up to Bit8) if station has not sent a PARAM-packet that specifies the parameter names for each digital bit.
  • All bit labels will be named "On" if station has not sent a UNIT-packet that specifies the label of each bit.
  • A bit is considered to be On when the bit is 1 if station has not sent a BITS-packet that specifies another "Bit sense" (a BITS-packet specify the state of the bits that match the BIT labels)